Time;durP1;ratioP1;P1;durP2;ratioP2;P2;SDS_P1;SDS_P2;PMS_P1;PMS_P2;Temp;Humidity;BMP_temperature;BMP_pressure;BME280_temperature;BME280_humidity;BME280_pressure;Samples;Min_cycle;Max_cycle;Signal;HPM_P1;HPM_P2
2022/02/24 00:00:05;;;;;;;;;;;22.00;32.60;;;;;;473553;252;1062;-39
2022/02/24 00:02:07;;;;;;;;;;;21.90;32.60;;;;;;474088;251;1357;-39
2022/02/24 00:04:08;;;;;;;;;;;22.00;32.50;;;;;;476501;249;1092;-39
2022/02/24 00:06:12;;;;;;;;;;;22.00;32.50;;;;;;473682;252;1130;-39
2022/02/24 00:08:12;;;;;;;;;;;22.00;32.50;;;;;;473593;252;2174;-39
2022/02/24 00:10:12;;;;;;;;;;;22.00;32.50;;;;;;475974;250;2143;-39
2022/02/24 00:12:13;;;;;;;;;;;22.00;32.50;;;;;;473332;252;1270;-39
2022/02/24 00:14:15;;;;;;;;;;;22.10;32.50;;;;;;474112;251;2138;-39
2022/02/24 00:16:16;;;;;;;;;;;22.00;32.40;;;;;;476124;249;1341;-39
2022/02/24 00:18:18;;;;;;;;;;;22.00;32.40;;;;;;473301;252;1163;-39
2022/02/24 00:20:19;;;;;;;;;;;22.00;32.40;;;;;;473900;251;1079;-39
2022/02/24 00:22:20;;;;;;;;;;;22.00;32.40;;;;;;476126;249;1164;-39
2022/02/24 00:24:22;;;;;;;;;;;22.10;32.50;;;;;;473457;252;1082;-39
2022/02/24 00:26:23;;;;;;;;;;;22.00;32.40;;;;;;473833;251;1601;-39
2022/02/24 00:28:24;;;;;;;;;;;22.00;32.40;;;;;;476498;249;1196;-39
2022/02/24 00:30:26;;;;;;;;;;;22.00;32.50;;;;;;473760;252;1090;-39
2022/02/24 00:32:27;;;;;;;;;;;22.00;32.50;;;;;;473707;251;1390;-39
2022/02/24 00:34:28;;;;;;;;;;;22.00;32.50;;;;;;476044;249;2184;-39
2022/02/24 00:36:29;;;;;;;;;;;22.00;32.50;;;;;;473675;252;1211;-39
2022/02/24 00:38:31;;;;;;;;;;;22.00;32.50;;;;;;473950;251;1081;-39
2022/02/24 00:40:32;;;;;;;;;;;22.00;32.50;;;;;;476412;249;1329;-39
2022/02/24 00:42:33;;;;;;;;;;;22.00;32.50;;;;;;473249;252;1192;-39
2022/02/24 00:44:35;;;;;;;;;;;22.00;32.50;;;;;;474156;251;1097;-39
2022/02/24 00:46:36;;;;;;;;;;;22.00;32.60;;;;;;476287;249;1501;-39
2022/02/24 00:48:37;;;;;;;;;;;22.00;32.60;;;;;;473513;252;1276;-39
2022/02/24 00:50:39;;;;;;;;;;;22.00;32.60;;;;;;473787;251;1435;-39
2022/02/24 00:52:40;;;;;;;;;;;22.00;32.50;;;;;;476423;249;1375;-39
2022/02/24 00:54:41;;;;;;;;;;;22.00;32.50;;;;;;473356;252;2198;-39
2022/02/24 00:56:43;;;;;;;;;;;22.00;32.50;;;;;;473841;251;1391;-39
2022/02/24 00:58:44;;;;;;;;;;;22.00;32.50;;;;;;476439;249;1247;-39
2022/02/24 01:00:45;;;;;;;;;;;22.00;32.60;;;;;;473640;252;1113;-39
2022/02/24 01:02:47;;;;;;;;;;;22.00;32.60;;;;;;473835;251;1103;-39
2022/02/24 01:04:48;;;;;;;;;;;22.10;32.50;;;;;;476428;249;1064;-39
2022/02/24 01:06:49;;;;;;;;;;;22.00;32.50;;;;;;473551;252;1280;-39
2022/02/24 01:08:50;;;;;;;;;;;22.00;32.50;;;;;;473757;251;1215;-39
2022/02/24 01:10:52;;;;;;;;;;;22.00;32.60;;;;;;475975;249;1455;-39
2022/02/24 01:12:53;;;;;;;;;;;22.00;32.50;;;;;;473704;252;1177;-39
2022/02/24 01:14:54;;;;;;;;;;;22.00;32.50;;;;;;474150;251;2192;-39
2022/02/24 01:16:56;;;;;;;;;;;22.00;32.60;;;;;;475992;249;1406;-39
2022/02/24 01:18:58;;;;;;;;;;;22.00;32.60;;;;;;473723;252;1196;-39
2022/02/24 01:20:59;;;;;;;;;;;22.00;32.60;;;;;;474012;251;1192;-39
2022/02/24 01:23:00;;;;;;;;;;;22.00;32.60;;;;;;476014;249;1243;-39
2022/02/24 01:25:02;;;;;;;;;;;22.00;32.60;;;;;;473328;252;1083;-39
2022/02/24 01:27:03;;;;;;;;;;;22.00;32.60;;;;;;473799;251;1341;-39
2022/02/24 01:29:04;;;;;;;;;;;22.00;32.60;;;;;;476492;249;1180;-39
2022/02/24 01:31:06;;;;;;;;;;;22.00;32.60;;;;;;473734;252;1373;-39
2022/02/24 01:33:07;;;;;;;;;;;22.00;32.60;;;;;;473634;251;1309;-39
2022/02/24 01:35:08;;;;;;;;;;;22.00;32.50;;;;;;475941;249;2203;-39
2022/02/24 01:37:09;;;;;;;;;;;22.00;32.50;;;;;;473238;252;1367;-39
2022/02/24 01:39:11;;;;;;;;;;;22.00;32.40;;;;;;474167;251;1003;-39
2022/02/24 01:41:12;;;;;;;;;;;22.10;32.60;;;;;;476380;249;1159;-39
2022/02/24 01:43:13;;;;;;;;;;;22.00;32.50;;;;;;473411;252;1039;-39
2022/02/24 01:45:15;;;;;;;;;;;22.00;32.50;;;;;;473830;251;1051;-39
2022/02/24 01:47:16;;;;;;;;;;;22.00;32.60;;;;;;475970;249;1553;-39
2022/02/24 01:49:20;;;;;;;;;;;22.00;32.60;;;;;;473708;252;1125;-39
2022/02/24 01:51:21;;;;;;;;;;;22.00;32.60;;;;;;473651;251;1898;-39
2022/02/24 01:53:20;;;;;;;;;;;22.00;32.50;;;;;;476000;250;2311;-39
2022/02/24 01:55:21;;;;;;;;;;;22.00;32.60;;;;;;473607;252;2201;-39
2022/02/24 01:57:23;;;;;;;;;;;22.00;32.50;;;;;;473846;251;1229;-39
2022/02/24 01:59:24;;;;;;;;;;;22.00;32.50;;;;;;476006;249;1101;-39
2022/02/24 02:01:25;;;;;;;;;;;22.00;32.50;;;;;;473605;252;1319;-39
2022/02/24 02:03:27;;;;;;;;;;;22.00;32.50;;;;;;473729;251;1193;-39
2022/02/24 02:05:28;;;;;;;;;;;22.00;32.50;;;;;;476076;249;1200;-39
2022/02/24 02:07:29;;;;;;;;;;;22.00;32.60;;;;;;473252;252;1180;-39
2022/02/24 02:09:31;;;;;;;;;;;22.00;32.60;;;;;;473904;251;1078;-39
2022/02/24 02:11:32;;;;;;;;;;;22.00;32.70;;;;;;476271;249;1247;-39
2022/02/24 02:13:33;;;;;;;;;;;21.90;32.60;;;;;;473341;252;1079;-39
2022/02/24 02:15:35;;;;;;;;;;;21.90;32.70;;;;;;473927;251;2177;-39
2022/02/24 02:17:36;;;;;;;;;;;22.00;32.60;;;;;;476026;249;1194;-39
2022/02/24 02:19:38;;;;;;;;;;;22.00;32.70;;;;;;473574;252;1055;-39
2022/02/24 02:21:39;;;;;;;;;;;22.00;32.60;;;;;;473862;251;1464;-39
2022/02/24 02:23:40;;;;;;;;;;;22.00;32.60;;;;;;476140;249;1102;-39
2022/02/24 02:25:42;;;;;;;;;;;22.00;32.60;;;;;;473314;252;1059;-39
2022/02/24 02:27:43;;;;;;;;;;;22.00;32.60;;;;;;473709;251;1324;-39
2022/02/24 02:29:44;;;;;;;;;;;22.00;32.60;;;;;;476498;249;1119;-39
2022/02/24 02:31:46;;;;;;;;;;;22.00;32.60;;;;;;473298;252;1162;-39
2022/02/24 02:33:47;;;;;;;;;;;22.00;32.60;;;;;;473730;251;1156;-39
2022/02/24 02:35:48;;;;;;;;;;;22.00;32.60;;;;;;476445;249;2121;-39
2022/02/24 02:37:50;;;;;;;;;;;22.00;32.60;;;;;;473749;252;1209;-39
2022/02/24 02:39:51;;;;;;;;;;;22.00;32.60;;;;;;474100;251;1058;-39
2022/02/24 02:41:52;;;;;;;;;;;22.00;32.60;;;;;;476364;249;1252;-39
2022/02/24 02:43:54;;;;;;;;;;;22.00;32.70;;;;;;473718;252;1274;-39
2022/02/24 02:45:55;;;;;;;;;;;22.00;32.70;;;;;;473737;251;1161;-39
2022/02/24 02:47:56;;;;;;;;;;;21.90;32.60;;;;;;475950;249;1103;-39
2022/02/24 02:49:57;;;;;;;;;;;21.90;32.60;;;;;;473704;252;1166;-39
2022/02/24 02:51:59;;;;;;;;;;;22.00;32.60;;;;;;474120;251;1168;-39
2022/02/24 02:54:00;;;;;;;;;;;22.00;32.60;;;;;;476440;249;998;-39
2022/02/24 02:56:01;;;;;;;;;;;22.00;32.70;;;;;;473511;252;2213;-39
2022/02/24 02:58:03;;;;;;;;;;;21.90;32.70;;;;;;473636;251;1293;-39
2022/02/24 03:00:04;;;;;;;;;;;22.00;32.70;;;;;;476203;249;1197;-39
2022/02/24 03:02:06;;;;;;;;;;;22.00;32.70;;;;;;473243;252;1390;-39
2022/02/24 03:04:07;;;;;;;;;;;22.00;32.70;;;;;;474157;251;2287;-39
2022/02/24 03:06:08;;;;;;;;;;;22.00;32.60;;;;;;476006;249;1526;-39
2022/02/24 03:08:09;;;;;;;;;;;22.00;32.60;;;;;;473677;252;1312;-39
2022/02/24 03:10:11;;;;;;;;;;;22.00;32.50;;;;;;473947;251;1053;-39
2022/02/24 03:12:12;;;;;;;;;;;22.00;32.60;;;;;;476325;249;1220;-39
2022/02/24 03:14:13;;;;;;;;;;;22.00;32.60;;;;;;473729;252;1108;-39
2022/02/24 03:16:15;;;;;;;;;;;22.00;32.60;;;;;;473748;247;2209;-39
2022/02/24 03:18:16;;;;;;;;;;;22.00;32.70;;;;;;476039;249;1040;-39
2022/02/24 03:20:17;;;;;;;;;;;21.90;32.60;;;;;;473329;252;1097;-40
2022/02/24 03:22:18;;;;;;;;;;;22.00;32.60;;;;;;474064;251;1163;-39
2022/02/24 03:24:21;;;;;;;;;;;22.00;32.60;;;;;;476391;249;1035;-39
2022/02/24 03:26:21;;;;;;;;;;;22.00;32.60;;;;;;473169;252;2229;-39
2022/02/24 03:28:23;;;;;;;;;;;22.00;32.60;;;;;;473749;251;1294;-39
2022/02/24 03:30:24;;;;;;;;;;;22.00;32.60;;;;;;476380;250;1752;-39
2022/02/24 03:32:25;;;;;;;;;;;22.00;32.60;;;;;;473252;252;1040;-39
2022/02/24 03:34:26;;;;;;;;;;;22.00;32.60;;;;;;473754;251;1050;-39
2022/02/24 03:36:28;;;;;;;;;;;22.00;32.70;;;;;;476376;249;2113;-39
2022/02/24 03:38:29;;;;;;;;;;;21.90;32.60;;;;;;473457;252;1203;-39
2022/02/24 03:40:30;;;;;;;;;;;21.90;32.70;;;;;;474054;248;1441;-39
2022/02/24 03:42:32;;;;;;;;;;;21.90;32.70;;;;;;476144;249;1223;-39
2022/02/24 03:44:33;;;;;;;;;;;21.90;32.60;;;;;;473751;252;1085;-39
2022/02/24 03:46:34;;;;;;;;;;;22.00;32.70;;;;;;473945;251;1250;-39
2022/02/24 03:48:36;;;;;;;;;;;22.00;32.60;;;;;;475947;249;1196;-39
2022/02/24 03:50:37;;;;;;;;;;;22.00;32.60;;;;;;473612;252;1391;-39
2022/02/24 03:52:38;;;;;;;;;;;22.00;32.60;;;;;;473707;251;1221;-39
2022/02/24 03:54:40;;;;;;;;;;;22.00;32.70;;;;;;476222;249;1078;-39
2022/02/24 03:56:41;;;;;;;;;;;21.90;32.60;;;;;;473525;252;2126;-39
2022/02/24 03:58:42;;;;;;;;;;;22.00;32.60;;;;;;473722;251;1203;-39
2022/02/24 04:00:43;;;;;;;;;;;22.00;32.60;;;;;;476451;249;968;-39
2022/02/24 04:02:45;;;;;;;;;;;21.90;32.60;;;;;;473417;252;1280;-39
2022/02/24 04:04:46;;;;;;;;;;;21.90;32.70;;;;;;474201;251;1040;-39
2022/02/24 04:06:47;;;;;;;;;;;22.00;32.70;;;;;;475991;249;1173;-39
2022/02/24 04:08:49;;;;;;;;;;;22.00;32.60;;;;;;473740;252;1175;-39
2022/02/24 04:10:50;;;;;;;;;;;22.00;32.60;;;;;;473954;251;1246;-39
2022/02/24 04:12:51;;;;;;;;;;;22.00;32.50;;;;;;476311;249;1304;-39
2022/02/24 04:14:55;;;;;;;;;;;22.00;32.50;;;;;;473340;252;1050;-39
2022/02/24 04:16:54;;;;;;;;;;;22.00;32.50;;;;;;473858;251;2164;-39
2022/02/24 04:18:55;;;;;;;;;;;22.00;32.60;;;;;;476374;249;1058;-39
2022/02/24 04:20:57;;;;;;;;;;;22.00;32.60;;;;;;473341;252;1411;-39
2022/02/24 04:22:58;;;;;;;;;;;22.00;32.50;;;;;;473736;251;1158;-40
2022/02/24 04:24:59;;;;;;;;;;;21.90;32.60;;;;;;476302;249;1122;-39
2022/02/24 04:27:01;;;;;;;;;;;22.00;32.60;;;;;;473305;252;1235;-39
2022/02/24 04:29:02;;;;;;;;;;;22.00;32.60;;;;;;473969;251;1210;-39
2022/02/24 04:31:03;;;;;;;;;;;21.90;32.60;;;;;;476392;249;1658;-39
2022/02/24 04:33:05;;;;;;;;;;;21.90;32.60;;;;;;473316;252;1043;-39
2022/02/24 04:35:06;;;;;;;;;;;21.90;32.70;;;;;;474087;251;1045;-39
2022/02/24 04:37:07;;;;;;;;;;;21.90;32.70;;;;;;476270;249;1124;-39
2022/02/24 04:39:09;;;;;;;;;;;21.90;32.60;;;;;;473740;252;1132;-39
2022/02/24 04:41:10;;;;;;;;;;;22.00;32.70;;;;;;474130;251;1228;-39
2022/02/24 04:43:11;;;;;;;;;;;22.00;32.70;;;;;;475961;249;1222;-39
2022/02/24 04:45:12;;;;;;;;;;;21.90;32.60;;;;;;473353;252;1286;-39
2022/02/24 04:47:14;;;;;;;;;;;21.90;32.60;;;;;;473949;251;1240;-39
2022/02/24 04:49:15;;;;;;;;;;;22.00;32.60;;;;;;476462;249;1050;-39
2022/02/24 04:51:16;;;;;;;;;;;22.00;32.60;;;;;;473553;252;1202;-39
2022/02/24 04:53:18;;;;;;;;;;;22.00;32.50;;;;;;473683;251;1171;-39
2022/02/24 04:55:19;;;;;;;;;;;22.00;32.50;;;;;;476222;249;2200;-39
2022/02/24 04:57:20;;;;;;;;;;;22.00;32.60;;;;;;473225;252;1318;-39
2022/02/24 04:59:22;;;;;;;;;;;22.00;32.50;;;;;;473736;251;1225;-39
2022/02/24 05:01:23;;;;;;;;;;;22.00;32.50;;;;;;476347;249;1166;-39
2022/02/24 05:03:25;;;;;;;;;;;22.00;32.50;;;;;;473582;252;1210;-39
2022/02/24 05:05:26;;;;;;;;;;;22.00;32.50;;;;;;474118;251;1378;-39
2022/02/24 05:07:27;;;;;;;;;;;22.00;32.50;;;;;;476345;249;1142;-39
2022/02/24 05:09:29;;;;;;;;;;;22.00;32.50;;;;;;473266;252;1061;-39
2022/02/24 05:11:30;;;;;;;;;;;22.00;32.50;;;;;;473604;251;1190;-39
2022/02/24 05:13:31;;;;;;;;;;;22.00;32.60;;;;;;476152;249;1198;-39
2022/02/24 05:15:33;;;;;;;;;;;22.00;32.60;;;;;;473284;252;2225;-39
2022/02/24 05:17:34;;;;;;;;;;;22.00;32.60;;;;;;473637;251;1427;-39
2022/02/24 05:19:36;;;;;;;;;;;22.00;32.60;;;;;;475913;249;1091;-39
2022/02/24 05:21:37;;;;;;;;;;;22.00;32.60;;;;;;473376;252;1213;-39
2022/02/24 05:23:40;;;;;;;;;;;22.00;32.60;;;;;;473676;251;1035;-39
2022/02/24 05:25:39;;;;;;;;;;;22.00;32.60;;;;;;475841;250;2164;-39
2022/02/24 05:27:42;;;;;;;;;;;21.90;32.60;;;;;;473202;252;1127;-39
2022/02/24 05:29:42;;;;;;;;;;;22.00;32.60;;;;;;473673;251;1896;-39
2022/02/24 05:31:44;;;;;;;;;;;22.00;32.60;;;;;;475897;249;1193;-39
2022/02/24 05:33:45;;;;;;;;;;;22.00;32.60;;;;;;473529;252;1240;-39
2022/02/24 05:35:46;;;;;;;;;;;22.00;32.60;;;;;;473531;247;2133;-39
2022/02/24 05:37:48;;;;;;;;;;;22.00;32.60;;;;;;476063;249;1224;-39
2022/02/24 05:39:49;;;;;;;;;;;22.00;32.60;;;;;;473172;252;1058;-39
2022/02/24 05:41:50;;;;;;;;;;;22.00;32.60;;;;;;473647;251;1339;-40
2022/02/24 05:43:52;;;;;;;;;;;22.00;32.60;;;;;;475874;249;1033;-39
2022/02/24 05:45:53;;;;;;;;;;;22.00;32.50;;;;;;473136;252;1320;-39
2022/02/24 05:47:54;;;;;;;;;;;22.00;32.50;;;;;;473652;251;1253;-39
2022/02/24 05:49:55;;;;;;;;;;;22.00;32.50;;;;;;475921;249;1088;-39
2022/02/24 05:51:57;;;;;;;;;;;22.00;32.50;;;;;;473101;252;1299;-39
2022/02/24 05:53:58;;;;;;;;;;;22.00;32.60;;;;;;473578;251;1104;-39
2022/02/24 05:55:59;;;;;;;;;;;22.00;32.60;;;;;;475711;249;2200;-39
2022/02/24 05:58:01;;;;;;;;;;;22.00;32.60;;;;;;473238;252;1131;-39
2022/02/24 06:00:02;;;;;;;;;;;22.00;32.50;;;;;;473789;251;1282;-39
2022/02/24 06:02:04;;;;;;;;;;;22.00;32.60;;;;;;475692;249;1206;-39
2022/02/24 06:04:05;;;;;;;;;;;22.00;32.50;;;;;;473138;252;1100;-39
2022/02/24 06:06:06;;;;;;;;;;;22.00;32.50;;;;;;473701;251;1346;-39
2022/02/24 06:08:08;;;;;;;;;;;22.00;32.50;;;;;;475765;249;1247;-39
2022/02/24 06:10:09;;;;;;;;;;;22.00;32.60;;;;;;473068;252;1061;-39
2022/02/24 06:12:10;;;;;;;;;;;22.00;32.60;;;;;;473364;251;1113;-39
2022/02/24 06:14:12;;;;;;;;;;;22.00;32.50;;;;;;476069;249;1034;-39
2022/02/24 06:16:13;;;;;;;;;;;22.00;32.40;;;;;;473060;252;2170;-39
2022/02/24 06:18:18;;;;;;;;;;;22.00;32.50;;;;;;473391;251;1243;-39
2022/02/24 06:20:16;;;;;;;;;;;22.00;32.50;;;;;;475738;250;2089;-39
2022/02/24 06:22:17;;;;;;;;;;;22.00;32.50;;;;;;473300;252;1244;-39
2022/02/24 06:24:18;;;;;;;;;;;22.00;32.50;;;;;;473467;251;1260;-40
2022/02/24 06:26:20;;;;;;;;;;;22.00;32.60;;;;;;475570;249;1323;-39
2022/02/24 06:28:21;;;;;;;;;;;22.00;32.60;;;;;;472992;252;1250;-39
2022/02/24 06:30:22;;;;;;;;;;;22.00;32.60;;;;;;473512;251;1155;-39
2022/02/24 06:32:24;;;;;;;;;;;22.00;32.60;;;;;;475585;249;1326;-39
2022/02/24 06:34:25;;;;;;;;;;;22.00;32.60;;;;;;472921;252;1191;-39
2022/02/24 06:36:26;;;;;;;;;;;22.10;32.60;;;;;;473386;251;2133;-39
2022/02/24 06:38:28;;;;;;;;;;;22.00;32.60;;;;;;475594;249;1170;-39
2022/02/24 06:40:29;;;;;;;;;;;22.00;32.60;;;;;;473082;252;1358;-39
2022/02/24 06:42:30;;;;;;;;;;;22.00;32.60;;;;;;473204;251;1524;-39
2022/02/24 06:44:32;;;;;;;;;;;22.00;32.50;;;;;;475749;249;1126;-39
2022/02/24 06:46:33;;;;;;;;;;;22.00;32.50;;;;;;472787;252;1247;-39
2022/02/24 06:48:34;;;;;;;;;;;22.00;32.50;;;;;;473351;251;1244;-39
2022/02/24 06:50:35;;;;;;;;;;;22.00;32.60;;;;;;475476;249;1103;-39
2022/02/24 06:52:37;;;;;;;;;;;22.00;32.60;;;;;;472741;252;1187;-39
2022/02/24 06:54:38;;;;;;;;;;;22.00;32.70;;;;;;473326;251;1181;-39
2022/02/24 06:56:39;;;;;;;;;;;21.90;32.60;;;;;;475318;249;2211;-39
2022/02/24 06:58:41;;;;;;;;;;;22.00;32.70;;;;;;472966;252;1222;-39
2022/02/24 07:00:42;;;;;;;;;;;22.00;32.70;;;;;;473273;251;1174;-39
2022/02/24 07:02:43;;;;;;;;;;;22.00;32.70;;;;;;475379;249;1318;-39
2022/02/24 07:04:45;;;;;;;;;;;22.00;32.60;;;;;;472802;252;1123;-39
2022/02/24 07:06:47;;;;;;;;;;;22.00;32.60;;;;;;473143;251;1343;-39
2022/02/24 07:08:47;;;;;;;;;;;22.00;32.70;;;;;;475438;249;1508;-39
2022/02/24 07:10:49;;;;;;;;;;;22.00;32.60;;;;;;472636;252;1185;-39
2022/02/24 07:12:50;;;;;;;;;;;22.00;32.50;;;;;;473127;251;1185;-39
2022/02/24 07:14:51;;;;;;;;;;;22.00;32.50;;;;;;475383;249;1193;-39
2022/02/24 07:16:53;;;;;;;;;;;22.00;32.50;;;;;;472689;252;2198;-39
2022/02/24 07:18:54;;;;;;;;;;;22.10;32.50;;;;;;473097;251;1141;-39
2022/02/24 07:20:56;;;;;;;;;;;22.00;32.40;;;;;;475500;249;1140;-39
2022/02/24 07:22:57;;;;;;;;;;;22.00;32.40;;;;;;472782;252;1148;-39
2022/02/24 07:24:58;;;;;;;;;;;22.10;32.40;;;;;;473029;251;1110;-39
2022/02/24 07:27:00;;;;;;;;;;;22.00;32.40;;;;;;475375;249;1118;-39
2022/02/24 07:29:01;;;;;;;;;;;22.00;32.50;;;;;;472746;252;1126;-39
2022/02/24 07:31:02;;;;;;;;;;;22.00;32.50;;;;;;473118;251;1256;-39
2022/02/24 07:33:03;;;;;;;;;;;22.00;32.40;;;;;;475424;249;1063;-39
2022/02/24 07:35:05;;;;;;;;;;;22.10;32.50;;;;;;472718;252;1102;-39
2022/02/24 07:37:06;;;;;;;;;;;22.10;32.50;;;;;;473090;251;2210;-39
2022/02/24 07:39:10;;;;;;;;;;;22.10;32.40;;;;;;475692;249;1150;-39
2022/02/24 07:41:11;;;;;;;;;;;22.10;32.40;;;;;;472757;252;2250;-39
2022/02/24 07:43:12;;;;;;;;;;;22.20;32.30;;;;;;473254;251;1172;-39
2022/02/24 07:45:13;;;;;;;;;;;22.20;32.30;;;;;;475357;249;1082;-39
2022/02/24 07:47:15;;;;;;;;;;;22.20;32.30;;;;;;472523;252;1378;-39
2022/02/24 07:49:16;;;;;;;;;;;22.20;32.30;;;;;;473084;251;1161;-39
2022/02/24 07:51:17;;;;;;;;;;;22.20;32.20;;;;;;475390;249;1204;-39
2022/02/24 07:53:18;;;;;;;;;;;22.20;32.20;;;;;;472778;252;1066;-39
2022/02/24 07:55:20;;;;;;;;;;;22.20;32.30;;;;;;473032;251;1020;-39
2022/02/24 07:57:21;;;;;;;;;;;22.20;32.30;;;;;;475226;249;2200;-39
2022/02/24 07:59:22;;;;;;;;;;;22.20;32.30;;;;;;472693;252;1132;-39
2022/02/24 08:01:24;;;;;;;;;;;22.20;32.30;;;;;;473147;251;1224;-39
2022/02/24 08:03:25;;;;;;;;;;;22.20;32.20;;;;;;475498;249;1153;-39
2022/02/24 08:05:26;;;;;;;;;;;22.20;32.30;;;;;;472623;252;1236;-39
2022/02/24 08:07:28;;;;;;;;;;;22.20;32.20;;;;;;472976;251;1117;-39
2022/02/24 08:09:29;;;;;;;;;;;22.20;32.20;;;;;;475255;249;1104;-39
2022/02/24 08:11:30;;;;;;;;;;;22.20;32.40;;;;;;472534;252;1218;-39
2022/02/24 08:13:32;;;;;;;;;;;22.20;32.30;;;;;;473099;251;1063;-39
2022/02/24 08:15:33;;;;;;;;;;;22.30;32.20;;;;;;475407;249;1517;-39
2022/02/24 08:17:34;;;;;;;;;;;22.30;32.30;;;;;;472680;252;2159;-39
2022/02/24 08:19:36;;;;;;;;;;;22.30;32.30;;;;;;472935;251;1215;-39
2022/02/24 08:21:37;;;;;;;;;;;22.30;32.30;;;;;;475347;244;1219;-39
2022/02/24 08:23:38;;;;;;;;;;;22.30;32.30;;;;;;472568;252;1054;-39
2022/02/24 08:25:40;;;;;;;;;;;22.30;32.30;;;;;;473020;251;1220;-39
2022/02/24 08:27:41;;;;;;;;;;;22.30;32.30;;;;;;475536;249;1201;-39
2022/02/24 08:29:42;;;;;;;;;;;22.30;32.30;;;;;;472916;252;1036;-39
2022/02/24 08:31:43;;;;;;;;;;;22.30;32.20;;;;;;473184;245;1355;-39
2022/02/24 08:33:45;;;;;;;;;;;22.30;32.20;;;;;;475523;249;1083;-39
2022/02/24 08:35:46;;;;;;;;;;;22.40;32.30;;;;;;472730;252;1349;-39
2022/02/24 08:37:48;;;;;;;;;;;22.40;32.20;;;;;;473035;251;2182;-39
2022/02/24 08:39:49;;;;;;;;;;;22.30;32.30;;;;;;475262;249;1406;-39
2022/02/24 08:41:50;;;;;;;;;;;22.40;32.30;;;;;;472633;252;1329;-39
2022/02/24 08:43:52;;;;;;;;;;;22.40;32.30;;;;;;473046;251;1214;-39
2022/02/24 08:45:53;;;;;;;;;;;22.40;32.40;;;;;;475203;249;1367;-40
2022/02/24 08:47:54;;;;;;;;;;;22.30;32.40;;;;;;472376;252;1584;-39
2022/02/24 08:49:56;;;;;;;;;;;22.40;32.40;;;;;;472783;251;1243;-39
2022/02/24 08:51:57;;;;;;;;;;;22.50;32.40;;;;;;475028;249;1369;-39
2022/02/24 08:53:58;;;;;;;;;;;22.40;32.40;;;;;;472639;252;1261;-39
2022/02/24 08:56:00;;;;;;;;;;;22.40;32.40;;;;;;473042;251;1270;-40
2022/02/24 08:58:01;;;;;;;;;;;22.40;32.50;;;;;;475220;249;2128;-39
2022/02/24 09:00:02;;;;;;;;;;;22.40;32.60;;;;;;472557;252;1101;-39
2022/02/24 09:02:04;;;;;;;;;;;22.40;32.60;;;;;;472828;251;1268;-39
2022/02/24 09:04:05;;;;;;;;;;;22.50;32.70;;;;;;475249;249;1206;-39
2022/02/24 09:06:07;;;;;;;;;;;22.40;32.70;;;;;;472592;252;1122;-39
2022/02/24 09:08:08;;;;;;;;;;;22.40;32.80;;;;;;473168;251;1154;-39
2022/02/24 09:10:10;;;;;;;;;;;22.40;32.90;;;;;;475047;249;1141;-39
2022/02/24 09:12:12;;;;;;;;;;;22.40;32.90;;;;;;472401;252;1238;-39
2022/02/24 09:14:13;;;;;;;;;;;22.40;32.90;;;;;;472959;251;1099;-39
2022/02/24 09:16:14;;;;;;;;;;;22.40;32.80;;;;;;474467;245;1439;-39
2022/02/24 09:18:16;;;;;;;;;;;22.40;33.00;;;;;;472497;252;2358;-39
2022/02/24 09:20:17;;;;;;;;;;;22.40;32.90;;;;;;473007;248;1351;-39
2022/02/24 09:22:18;;;;;;;;;;;22.40;32.90;;;;;;475526;249;1228;-39
2022/02/24 09:24:20;;;;;;;;;;;22.50;32.90;;;;;;472522;252;1202;-39
2022/02/24 09:26:21;;;;;;;;;;;22.40;33.00;;;;;;473093;251;1289;-39
2022/02/24 09:28:22;;;;;;;;;;;22.40;32.90;;;;;;475398;249;1098;-39
2022/02/24 09:30:23;;;;;;;;;;;22.40;32.90;;;;;;472446;252;1108;-39
2022/02/24 09:32:26;;;;;;;;;;;22.40;32.90;;;;;;473107;250;1260;-39
2022/02/24 09:34:27;;;;;;;;;;;22.40;33.00;;;;;;475676;249;1057;-39
2022/02/24 09:36:28;;;;;;;;;;;22.40;33.00;;;;;;472689;252;1330;-39
2022/02/24 09:38:29;;;;;;;;;;;22.40;33.10;;;;;;472876;251;2197;-39
2022/02/24 09:40:31;;;;;;;;;;;22.40;33.00;;;;;;474971;250;1273;-39
2022/02/24 09:42:32;;;;;;;;;;;22.40;33.00;;;;;;473038;252;1218;-39
2022/02/24 09:44:33;;;;;;;;;;;22.50;32.90;;;;;;472958;251;1089;-39
2022/02/24 09:46:35;;;;;;;;;;;22.40;33.00;;;;;;475223;249;1338;-39
2022/02/24 09:48:36;;;;;;;;;;;22.50;32.90;;;;;;472429;252;1234;-39
2022/02/24 09:50:39;;;;;;;;;;;22.50;32.90;;;;;;472864;251;1342;-39
2022/02/24 09:52:40;;;;;;;;;;;22.40;33.00;;;;;;475154;249;2116;-40
2022/02/24 09:54:41;;;;;;;;;;;22.40;33.10;;;;;;472331;252;1104;-39
2022/02/24 09:56:43;;;;;;;;;;;22.40;32.90;;;;;;472676;251;1109;-39
2022/02/24 09:58:45;;;;;;;;;;;22.40;32.90;;;;;;475160;249;2144;-39
2022/02/24 10:00:45;;;;;;;;;;;22.50;33.00;;;;;;472329;252;1367;-39
2022/02/24 10:02:46;;;;;;;;;;;22.50;32.90;;;;;;472821;251;1230;-39
2022/02/24 10:04:47;;;;;;;;;;;22.50;32.90;;;;;;475244;249;1079;-39
2022/02/24 10:06:49;;;;;;;;;;;22.40;32.90;;;;;;472418;252;1311;-40
2022/02/24 10:08:50;;;;;;;;;;;22.50;33.00;;;;;;472930;251;1228;-39
2022/02/24 10:10:52;;;;;;;;;;;22.50;33.00;;;;;;475126;249;1256;-40
2022/02/24 10:12:53;;;;;;;;;;;22.40;32.90;;;;;;472608;252;1290;-39
2022/02/24 10:14:54;;;;;;;;;;;22.40;33.00;;;;;;473026;251;1376;-39
2022/02/24 10:16:56;;;;;;;;;;;22.50;33.00;;;;;;475246;249;1308;-39
2022/02/24 10:18:57;;;;;;;;;;;22.40;33.00;;;;;;472551;252;2150;-39
2022/02/24 10:21:00;;;;;;;;;;;22.40;33.00;;;;;;473103;251;1269;-39
2022/02/24 10:22:59;;;;;;;;;;;22.40;33.10;;;;;;475951;250;2354;-39
2022/02/24 10:25:01;;;;;;;;;;;22.30;33.10;;;;;;472520;252;1176;-39
2022/02/24 10:27:02;;;;;;;;;;;22.30;33.10;;;;;;473049;251;1209;-39
2022/02/24 10:29:04;;;;;;;;;;;22.30;33.10;;;;;;475395;249;1102;-39
2022/02/24 10:31:05;;;;;;;;;;;22.30;33.10;;;;;;472557;252;1236;-39
2022/02/24 10:33:06;;;;;;;;;;;22.30;33.10;;;;;;472983;251;1138;-39
2022/02/24 10:35:08;;;;;;;;;;;22.30;33.00;;;;;;475129;249;1249;-40
2022/02/24 10:37:09;;;;;;;;;;;22.30;33.00;;;;;;473204;252;1241;-39
2022/02/24 10:39:10;;;;;;;;;;;22.30;33.00;;;;;;473595;251;2194;-39
2022/02/24 10:41:12;;;;;;;;;;;22.30;33.10;;;;;;475675;244;1107;-39
2022/02/24 10:43:13;;;;;;;;;;;22.30;33.00;;;;;;472855;252;1104;-39
2022/02/24 10:45:17;;;;;;;;;;;22.30;33.10;;;;;;473144;251;1390;-39
2022/02/24 10:47:16;;;;;;;;;;;22.30;33.10;;;;;;475579;249;2076;-39
2022/02/24 10:49:17;;;;;;;;;;;22.30;33.00;;;;;;472565;252;1160;-39
2022/02/24 10:51:18;;;;;;;;;;;22.30;33.00;;;;;;473065;251;1337;-39
2022/02/24 10:53:20;;;;;;;;;;;22.30;33.00;;;;;;475473;249;1074;-39
2022/02/24 10:55:21;;;;;;;;;;;22.30;33.00;;;;;;472441;252;1239;-39
2022/02/24 10:57:25;;;;;;;;;;;22.30;33.00;;;;;;473037;251;2181;-39
2022/02/24 10:59:24;;;;;;;;;;;22.30;32.90;;;;;;475420;249;1932;-39
2022/02/24 11:01:25;;;;;;;;;;;22.30;32.90;;;;;;472548;252;1260;-39
2022/02/24 11:03:29;;;;;;;;;;;22.30;32.90;;;;;;472977;251;1203;-39
2022/02/24 11:05:28;;;;;;;;;;;22.30;32.90;;;;;;475105;250;2227;-39
2022/02/24 11:07:29;;;;;;;;;;;22.30;32.90;;;;;;472456;252;1130;-39
2022/02/24 11:09:31;;;;;;;;;;;22.30;32.90;;;;;;473000;251;1104;-39
2022/02/24 11:11:32;;;;;;;;;;;22.40;32.80;;;;;;475292;249;1224;-39
2022/02/24 11:13:34;;;;;;;;;;;22.30;32.70;;;;;;472529;252;1283;-39
2022/02/24 11:15:35;;;;;;;;;;;22.30;32.70;;;;;;472988;251;1148;-39
2022/02/24 11:17:37;;;;;;;;;;;22.30;32.70;;;;;;475257;249;2212;-39
2022/02/24 11:19:38;;;;;;;;;;;22.30;32.70;;;;;;472470;252;1218;-39
2022/02/24 11:21:39;;;;;;;;;;;22.30;32.70;;;;;;472961;251;1356;-39
2022/02/24 11:23:41;;;;;;;;;;;22.30;32.70;;;;;;475365;249;1067;-39
2022/02/24 11:25:42;;;;;;;;;;;22.30;32.70;;;;;;472463;252;1083;-39
2022/02/24 11:27:43;;;;;;;;;;;22.30;32.70;;;;;;473000;251;1556;-39
2022/02/24 11:29:45;;;;;;;;;;;22.30;32.70;;;;;;475314;249;1076;-39
2022/02/24 11:31:46;;;;;;;;;;;22.30;32.70;;;;;;472749;252;1257;-39
2022/02/24 11:33:47;;;;;;;;;;;22.30;32.70;;;;;;473030;251;1217;-39
2022/02/24 11:35:48;;;;;;;;;;;22.30;32.70;;;;;;475337;249;1212;-39
2022/02/24 11:37:50;;;;;;;;;;;22.30;32.70;;;;;;472342;252;2189;-39
2022/02/24 11:39:51;;;;;;;;;;;22.30;32.70;;;;;;472785;251;1237;-39
2022/02/24 11:41:53;;;;;;;;;;;22.30;32.60;;;;;;474801;249;1192;-39
2022/02/24 11:43:54;;;;;;;;;;;22.40;32.60;;;;;;472319;252;1102;-39
2022/02/24 11:45:56;;;;;;;;;;;22.30;32.50;;;;;;472790;251;1377;-39
2022/02/24 11:47:57;;;;;;;;;;;22.30;32.60;;;;;;475247;250;1881;-39
2022/02/24 11:49:58;;;;;;;;;;;22.30;32.60;;;;;;472573;252;1182;-39
2022/02/24 11:51:59;;;;;;;;;;;22.40;32.60;;;;;;472962;251;1175;-39
2022/02/24 11:54:03;;;;;;;;;;;22.30;32.50;;;;;;475264;249;1091;-39
2022/02/24 11:56:02;;;;;;;;;;;22.40;32.50;;;;;;472363;252;2245;-39